Time;durP1;ratioP1;P1;durP2;ratioP2;P2;SDS_P1;SDS_P2;PMS_P1;PMS_P2;Temp;Humidity;BMP_temperature;BMP_pressure;BME280_temperature;BME280_humidity;BME280_pressure;Samples;Min_cycle;Max_cycle;Signal;HPM_P1;HPM_P2
2022/08/29 00:01:24;;;;;;;;;;;;;;;23.21;51.03;102036.66;7233406;19;155650;-63
2022/08/29 00:03:54;;;;;;;;;;;;;;;23.23;50.76;102043.69;7273287;19;152261;-62
2022/08/29 00:06:21;;;;;;;;;;;;;;;23.22;51.12;102041.97;7277155;19;153261;-62
2022/08/29 00:08:48;;;;;;;;;;;;;;;23.22;51.08;102046.78;7273423;19;153465;-62
2022/08/29 00:11:16;;;;;;;;;;;;;;;23.21;51.05;102042.31;7283798;19;151905;-63
2022/08/29 00:13:43;;;;;;;;;;;;;;;23.19;51.33;102039.78;7283387;19;153672;-62
2022/08/29 00:16:11;;;;;;;;;;;;;;;23.30;50.96;102048.97;7291609;19;153406;-62
2022/08/29 00:18:38;;;;;;;;;;;;;;;23.21;50.99;102045.13;7284443;19;152400;-63
2022/08/29 00:21:05;;;;;;;;;;;;;;;23.17;50.91;102050.50;7278672;19;153154;-62
2022/08/29 00:23:33;;;;;;;;;;;;;;;23.21;50.99;102048.78;7282800;19;152502;-63
2022/08/29 00:26:00;;;;;;;;;;;;;;;23.21;50.75;102054.44;7284908;19;152430;-63
2022/08/29 00:28:27;;;;;;;;;;;;;;;23.18;51.05;102046.53;7281399;19;154048;-62
2022/08/29 00:30:54;;;;;;;;;;;;;;;23.15;51.11;102040.69;7284341;19;152213;-63
2022/08/29 00:33:20;;;;;;;;;;;;;;;23.16;51.25;102040.38;7286290;19;153760;-62
2022/08/29 00:35:47;;;;;;;;;;;;;;;23.21;50.86;102042.31;7283027;19;154623;-62
2022/08/29 00:38:16;;;;;;;;;;;;;;;23.17;51.18;102041.22;7292397;19;153317;-63
2022/08/29 00:40:46;;;;;;;;;;;;;;;23.15;51.28;102043.50;7285394;19;154362;-63
2022/08/29 00:43:26;;;;;;;;;;;;;;;23.15;51.12;102046.31;7284341;19;152339;-63
2022/08/29 00:46:12;;;;;;;;;;;;;;;23.15;51.10;102044.34;7284270;19;152040;-63
2022/08/29 00:48:40;;;;;;;;;;;;;;;23.14;51.04;102044.63;7283970;19;154382;-63
2022/08/29 00:51:11;;;;;;;;;;;;;;;23.14;51.28;102041.81;7280730;19;152029;-63
2022/08/29 00:53:41;;;;;;;;;;;;;;;23.14;51.25;102036.16;7285701;19;151917;-63
2022/08/29 00:56:08;;;;;;;;;;;;;;;23.13;51.11;102037.31;7284400;19;154297;-63
2022/08/29 00:58:45;;;;;;;;;;;;;;;23.18;51.05;102038.09;7286881;19;152163;-62
2022/08/29 01:01:13;;;;;;;;;;;;;;;23.13;51.10;102032.50;7291983;19;153654;-63
2022/08/29 01:03:40;;;;;;;;;;;;;;;23.15;51.40;102032.22;7283709;19;152078;-63
2022/08/29 01:06:09;;;;;;;;;;;;;;;23.10;51.54;102030.28;7283403;19;154622;-62
2022/08/29 01:08:36;;;;;;;;;;;;;;;23.11;51.55;102036.78;7282914;19;153556;-62
2022/08/29 01:13:50;;;;;;;;;;;;;;;23.10;51.36;102037.91;7283949;19;153384;-64
2022/08/29 01:16:17;;;;;;;;;;;;;;;23.10;51.13;102041.56;7284816;19;154959;-62
2022/08/29 01:18:46;;;;;;;;;;;;;;;23.08;51.15;102043.03;7285165;19;152421;-63
2022/08/29 01:21:16;;;;;;;;;;;;;;;23.08;51.63;102038.19;7283391;19;153650;-62
2022/08/29 01:23:54;;;;;;;;;;;;;;;23.10;51.41;102035.94;7291701;19;153502;-62
2022/08/29 01:26:22;;;;;;;;;;;;;;;23.07;51.50;102038.53;7286818;19;152418;-63
2022/08/29 01:28:50;;;;;;;;;;;;;;;23.11;51.29;102037.63;7280680;19;153362;-62
2022/08/29 01:31:21;;;;;;;;;;;;;;;23.11;51.41;102046.09;7285835;19;152357;-62
2022/08/29 01:34:09;;;;;;;;;;;;;;;23.09;51.29;102039.03;7282440;19;155097;-62
2022/08/29 01:36:54;;;;;;;;;;;;;;;23.07;51.24;102041.34;7283132;19;154574;-63
2022/08/29 01:39:28;;;;;;;;;;;;;;;23.06;51.61;102048.97;7284064;19;152672;-63
2022/08/29 01:41:59;;;;;;;;;;;;;;;23.06;51.77;102037.69;7284093;19;154853;-62
2022/08/29 01:44:26;;;;;;;;;;;;;;;23.07;51.68;102032.88;7283884;19;153393;-63
2022/08/29 01:46:55;;;;;;;;;;;;;;;23.09;51.58;102034.25;7294977;19;152126;-62
2022/08/29 01:49:30;;;;;;;;;;;;;;;23.05;51.38;102036.84;7276408;19;152259;-63
2022/08/29 01:51:59;;;;;;;;;;;;;;;23.04;51.49;102032.31;7286278;19;152145;-63
2022/08/29 01:54:28;;;;;;;;;;;;;;;23.03;51.70;102030.63;7283251;19;152992;-62
2022/08/29 01:56:55;;;;;;;;;;;;;;;23.04;51.93;102025.84;7285239;19;153438;-62
2022/08/29 01:59:28;;;;;;;;;;;;;;;23.03;51.67;102032.66;7283362;19;152294;-63
2022/08/29 02:02:01;;;;;;;;;;;;;;;23.07;51.58;102044.16;7285032;19;154406;-62
2022/08/29 02:04:29;;;;;;;;;;;;;;;23.04;51.93;102039.94;7279880;19;154135;-62
2022/08/29 02:06:56;;;;;;;;;;;;;;;23.07;51.45;102039.38;7293569;19;151617;-62
2022/08/29 02:09:27;;;;;;;;;;;;;;;23.08;51.45;102043.84;7280222;19;153951;-63
2022/08/29 02:12:01;;;;;;;;;;;;;;;23.05;51.64;102041.63;7283520;19;152169;-62
2022/08/29 02:14:29;;;;;;;;;;;;;;;23.04;51.56;102042.75;7283650;19;152960;-62
2022/08/29 02:16:56;;;;;;;;;;;;;;;23.03;51.72;102049.56;7283311;19;154189;-63
2022/08/29 02:19:27;;;;;;;;;;;;;;;23.05;51.50;102042.47;7281506;19;152307;-63
2022/08/29 02:21:58;;;;;;;;;;;;;;;23.07;51.63;102039.38;7284401;19;152940;-63
2022/08/29 02:24:25;;;;;;;;;;;;;;;23.05;51.79;102044.44;7281617;19;154024;-62
2022/08/29 02:26:54;;;;;;;;;;;;;;;23.02;51.91;102047.88;7285376;19;152297;-62
2022/08/29 02:29:30;;;;;;;;;;;;;;;23.03;51.92;102049.56;7286904;19;153684;-64
2022/08/29 02:32:07;;;;;;;;;;;;;;;23.01;51.86;102043.38;7285545;19;151852;-62
2022/08/29 02:34:34;;;;;;;;;;;;;;;23.02;51.77;102045.91;7278208;19;153732;-62
2022/08/29 02:37:02;;;;;;;;;;;;;;;23.03;51.82;102049.56;7282025;19;152219;-62
2022/08/29 02:39:31;;;;;;;;;;;;;;;23.02;51.84;102039.41;7282117;19;152105;-62
2022/08/29 02:41:59;;;;;;;;;;;;;;;23.01;51.86;102049.84;7285767;19;152771;-63
2022/08/29 02:44:26;;;;;;;;;;;;;;;23.02;51.80;102043.09;7280945;19;153439;-63
2022/08/29 02:46:53;;;;;;;;;;;;;;;23.00;51.83;102044.50;7284693;19;152371;-62
2022/08/29 02:49:26;;;;;;;;;;;;;;;23.03;51.85;102049.56;7278571;19;153577;-63
2022/08/29 02:51:57;;;;;;;;;;;;;;;23.01;51.88;102044.22;7290240;19;153909;-63
2022/08/29 02:54:25;;;;;;;;;;;;;;;22.98;51.90;102039.19;7281014;19;154091;-63
2022/08/29 02:56:52;;;;;;;;;;;;;;;22.96;52.03;102038.63;7283152;19;153953;-63
2022/08/29 02:59:26;;;;;;;;;;;;;;;22.97;52.12;102036.66;7281576;19;153952;-63
2022/08/29 03:01:57;;;;;;;;;;;;;;;22.98;51.71;102041.16;7283789;19;156029;-62
2022/08/29 03:04:24;;;;;;;;;;;;;;;22.96;52.02;102038.63;7279201;19;153620;-63
2022/08/29 03:06:51;;;;;;;;;;;;;;;22.98;51.73;102039.19;7284319;19;152477;-62
2022/08/29 03:09:24;;;;;;;;;;;;;;;22.97;52.05;102029.03;7279012;19;153816;-63
2022/08/29 03:11:55;;;;;;;;;;;;;;;22.95;52.05;102033.28;7282647;19;152584;-62
2022/08/29 03:14:23;;;;;;;;;;;;;;;22.98;51.86;102033.53;7288470;19;152586;-63
2022/08/29 03:16:50;;;;;;;;;;;;;;;23.00;51.85;102027.59;7282177;19;154229;-63
2022/08/29 03:19:21;;;;;;;;;;;;;;;22.96;51.82;102021.72;7279678;19;152129;-62
2022/08/29 03:22:02;;;;;;;;;;;;;;;22.95;51.86;102024.81;7281171;19;152400;-62
2022/08/29 03:24:29;;;;;;;;;;;;;;;22.94;52.23;102034.44;7280012;19;154555;-63
2022/08/29 03:26:56;;;;;;;;;;;;;;;22.95;51.84;102030.47;7282724;19;152119;-63
2022/08/29 03:29:27;;;;;;;;;;;;;;;22.92;51.89;102033.88;7278556;19;153776;-63
2022/08/29 03:31:57;;;;;;;;;;;;;;;22.91;51.95;102029.38;7281383;19;153646;-63
2022/08/29 03:34:26;;;;;;;;;;;;;;;22.94;51.96;102026.78;7275976;19;152646;-64
2022/08/29 03:36:53;;;;;;;;;;;;;;;22.96;51.99;102029.31;7290082;19;153898;-63
2022/08/29 03:39:28;;;;;;;;;;;;;;;22.94;51.69;102028.81;7280884;19;151741;-62
2022/08/29 03:41:58;;;;;;;;;;;;;;;22.93;52.06;102027.97;7275660;19;153470;-62
2022/08/29 03:44:26;;;;;;;;;;;;;;;22.94;51.70;102034.44;7278301;19;154402;-63
2022/08/29 03:46:53;;;;;;;;;;;;;;;22.94;52.05;102034.44;7289943;19;152268;-62
2022/08/29 03:49:20;;;;;;;;;;;;;;;22.91;52.03;102021.78;7283788;19;152630;-63
2022/08/29 03:51:48;;;;;;;;;;;;;;;;;;7287896;19;154463;-63
2022/08/29 03:54:15;;;;;;;;;;;;;;;22.84;52.31;102026.94;7285024;19;159801;-62
2022/08/29 03:56:42;;;;;;;;;;;;;;;22.87;52.12;102028.31;7289324;19;153342;-63
2022/08/29 03:59:10;;;;;;;;;;;;;;;22.87;52.17;102025.47;7294252;19;155253;-63
2022/08/29 04:01:37;;;;;;;;;;;;;;;22.89;52.29;102035.34;7289815;19;152501;-64
2022/08/29 04:04:04;;;;;;;;;;;;;;;22.92;51.89;102031.06;7282008;19;153661;-64
2022/08/29 04:06:32;;;;;;;;;;;;;;;22.86;52.29;102023.78;7288003;19;152293;-63
2022/08/29 04:08:59;;;;;;;;;;;;;;;22.89;52.24;102026.03;7286453;19;153514;-63
2022/08/29 04:11:27;;;;;;;;;;;;;;;22.88;52.12;102028.00;7285315;19;153634;-62
2022/08/29 04:13:54;;;;;;;;;;;;;;;22.87;52.05;102025.47;7288364;19;152658;-63
2022/08/29 04:16:22;;;;;;;;;;;;;;;22.85;51.88;102031.41;7289405;19;152834;-63
2022/08/29 04:18:49;;;;;;;;;;;;;;;22.85;52.05;102025.78;7294061;19;153696;-63
2022/08/29 04:21:17;;;;;;;;;;;;;;;22.84;52.36;102028.91;7286077;19;154107;-64
2022/08/29 04:23:44;;;;;;;;;;;;;;;22.83;52.08;102025.25;7285306;19;153984;-63
2022/08/29 04:26:14;;;;;;;;;;;;;;;22.82;51.98;102020.75;7287176;19;153628;-64
2022/08/29 04:29:02;;;;;;;;;;;;;;;22.88;51.89;102030.81;7284858;19;152632;-63
2022/08/29 04:31:29;;;;;;;;;;;;;;;22.82;52.16;102025.53;7286257;19;153860;-63
2022/08/29 04:33:56;;;;;;;;;;;;;;;22.83;52.01;102028.06;7285237;19;151963;-62
2022/08/29 04:36:23;;;;;;;;;;;;;;;22.87;52.18;102029.16;7283707;19;152764;-63
2022/08/29 04:38:49;;;;;;;;;;;;;;;22.82;52.28;102029.19;7283699;19;153691;-62
2022/08/29 04:41:16;;;;;;;;;;;;;;;22.84;52.08;102021.28;7293781;19;152537;-64
2022/08/29 04:43:46;;;;;;;;;;;;;;;22.85;52.11;102024.97;7284957;19;152650;-63
2022/08/29 04:46:13;;;;;;;;;;;;;;;22.80;52.27;102022.19;7287191;19;151946;-63
2022/08/29 04:48:49;;;;;;;;;;;;;;;22.80;52.08;102036.28;7284367;19;153500;-64
2022/08/29 04:51:16;;;;;;;;;;;;;;;22.77;52.71;102034.88;7283406;19;154791;-63
2022/08/29 04:53:44;;;;;;;;;;;;;;;22.78;52.61;102036.56;7285094;19;152559;-63
2022/08/29 04:56:11;;;;;;;;;;;;;;;22.79;52.77;102040.22;7286030;19;153549;-62
2022/08/29 04:58:39;;;;;;;;;;;;;;;22.81;52.22;102049.22;7285035;19;154366;-62
2022/08/29 05:01:11;;;;;;;;;;;;;;;22.81;52.35;102044.41;7286094;19;152084;-62
2022/08/29 05:03:38;;;;;;;;;;;;;;;22.78;52.38;102047.00;7291207;19;154120;-62
2022/08/29 05:06:09;;;;;;;;;;;;;;;22.78;52.32;102050.66;7284024;19;152235;-63
2022/08/29 05:08:37;;;;;;;;;;;;;;;22.76;52.71;102054.91;7285843;19;152931;-63
2022/08/29 05:11:09;;;;;;;;;;;;;;;22.75;52.59;102044.78;7284326;19;154197;-62
2022/08/29 05:13:37;;;;;;;;;;;;;;;22.75;52.51;102053.22;7285919;19;152073;-63
2022/08/29 05:16:08;;;;;;;;;;;;;;;22.74;52.50;102060.84;7286389;19;153881;-63
2022/08/29 05:18:35;;;;;;;;;;;;;;;22.77;52.50;102059.41;7283865;19;155170;-63
2022/08/29 05:21:05;;;;;;;;;;;;;;;22.73;52.94;102050.69;7283291;19;152131;-63
2022/08/29 05:23:35;;;;;;;;;;;;;;;22.75;52.78;102067.31;7284459;19;152275;-62
2022/08/29 05:26:03;;;;;;;;;;;;;;;22.71;52.73;102066.25;7291339;19;153290;-63
2022/08/29 05:28:31;;;;;;;;;;;;;;;22.70;52.71;102073.84;7285137;19;152485;-62
2022/08/29 05:31:04;;;;;;;;;;;;;;;22.71;52.96;102077.50;7279257;19;154101;-63
2022/08/29 05:33:39;;;;;;;;;;;;;;;22.69;53.04;102074.09;7285518;19;152323;-63
2022/08/29 05:36:06;;;;;;;;;;;;;;;22.72;53.10;102081.97;7282139;19;153392;-64
2022/08/29 05:38:32;;;;;;;;;;;;;;;22.72;52.91;102084.81;7284437;19;153229;-63
2022/08/29 05:41:04;;;;;;;;;;;;;;;22.70;53.05;102076.66;7284597;19;152533;-63
2022/08/29 05:43:31;;;;;;;;;;;;;;;22.74;52.87;102086.19;7285367;19;154800;-63
2022/08/29 05:46:02;;;;;;;;;;;;;;;22.69;53.27;102086.22;7283888;19;157555;-62
2022/08/29 05:48:30;;;;;;;;;;;;;;;22.67;53.16;102082.84;7292676;19;152063;-62
2022/08/29 05:51:02;;;;;;;;;;;;;;;22.69;53.28;102079.72;7277201;19;152569;-62
2022/08/29 05:53:29;;;;;;;;;;;;;;;22.74;52.78;102079.72;7283639;19;151882;-62
2022/08/29 05:55:56;;;;;;;;;;;;;;;22.68;53.23;102066.78;7284437;19;154679;-63
2022/08/29 05:58:23;;;;;;;;;;;;;;;22.70;53.32;102075.81;7282959;19;154371;-63
2022/08/29 06:00:49;;;;;;;;;;;;;;;22.69;53.33;102074.94;7284963;19;153078;-63
2022/08/29 06:03:16;;;;;;;;;;;;;;;22.68;53.01;102070.44;7281616;19;154299;-63
2022/08/29 06:05:48;;;;;;;;;;;;;;;22.71;52.87;102075.53;7280243;19;154510;-63
2022/08/29 06:08:15;;;;;;;;;;;;;;;22.68;52.98;102073.25;7282236;19;152281;-62
2022/08/29 06:10:44;;;;;;;;;;;;;;;22.67;53.48;102076.38;7289047;19;152971;-63
2022/08/29 06:13:11;;;;;;;;;;;;;;;22.68;53.27;102075.22;7282730;19;152279;-62
2022/08/29 06:15:41;;;;;;;;;;;;;;;22.67;53.28;102079.22;7283522;19;153623;-62
2022/08/29 06:18:08;;;;;;;;;;;;;;;22.63;53.31;102074.13;7282664;19;154333;-63
2022/08/29 06:20:36;;;;;;;;;;;;;;;22.63;53.52;102079.78;7281082;19;153352;-63
2022/08/29 06:23:02;;;;;;;;;;;;;;;22.68;53.19;102075.22;7284613;19;152920;-62
2022/08/29 06:25:29;;;;;;;;;;;;;;;22.68;53.58;102080.84;7282627;19;153850;-62
2022/08/29 06:28:05;;;;;;;;;;;;;;;22.72;52.96;102077.19;7283380;19;152237;-64
2022/08/29 06:30:32;;;;;;;;;;;;;;;22.75;53.15;102075.78;7288016;19;153369;-63
2022/08/29 06:33:00;;;;;;;;;;;;;;;22.69;53.21;102074.09;7283619;19;151807;-63
2022/08/29 06:35:26;;;;;;;;;;;;;;;22.69;53.11;102079.72;7280689;19;153934;-63
2022/08/29 06:37:57;;;;;;;;;;;;;;;22.66;53.33;102074.69;7282131;19;153879;-63
2022/08/29 06:40:24;;;;;;;;;;;;;;;22.68;53.39;102084.53;7283947;19;151679;-63
2022/08/29 06:42:51;;;;;;;;;;;;;;;22.65;53.34;102075.81;7283553;19;152916;-62
2022/08/29 06:45:18;;;;;;;;;;;;;;;22.65;53.47;102081.47;7282659;19;153197;-63
2022/08/29 06:47:45;;;;;;;;;;;;;;;22.68;53.65;102081.72;7281249;19;151920;-62
2022/08/29 06:50:12;;;;;;;;;;;;;;;22.66;53.15;102084.00;7278485;19;153571;-62
2022/08/29 06:52:39;;;;;;;;;;;;;;;22.69;53.08;102091.84;7288817;19;154357;-63
2022/08/29 06:55:10;;;;;;;;;;;;;;;22.69;53.33;102091.00;7282029;19;153676;-62
2022/08/29 06:57:44;;;;;;;;;;;;;;;22.69;53.15;102089.03;7282901;19;153772;-63
2022/08/29 07:00:12;;;;;;;;;;;;;;;22.67;53.35;102090.47;7281991;19;152331;-62
2022/08/29 07:02:48;;;;;;;;;;;;;;;22.68;53.13;102090.16;7282136;19;152574;-63
2022/08/29 07:05:18;;;;;;;;;;;;;;;22.67;53.47;102088.47;7278970;19;154557;-63
2022/08/29 07:07:45;;;;;;;;;;;;;;;22.65;53.24;102087.94;7284175;19;152156;-64
2022/08/29 07:10:13;;;;;;;;;;;;;;;22.67;53.52;102096.91;7279472;19;153015;-64
2022/08/29 07:12:46;;;;;;;;;;;;;;;22.71;53.62;102098.06;7280813;19;155157;-64
2022/08/29 07:15:13;;;;;;;;;;;;;;;22.72;53.53;102104.53;7289391;19;152084;-63
2022/08/29 07:17:40;;;;;;;;;;;;;;;22.68;53.28;102092.13;7282836;19;154992;-63
2022/08/29 07:20:08;;;;;;;;;;;;;;;22.69;53.58;102102.28;7281580;19;152289;-63
2022/08/29 07:22:35;;;;;;;;;;;;;;;22.70;53.48;102098.34;7289112;19;155116;-63
2022/08/29 07:25:02;;;;;;;;;;;;;;;22.71;53.32;102095.25;7285584;19;153916;-62
2022/08/29 07:27:28;;;;;;;;;;;;;;;22.69;53.50;102085.38;7289719;19;153102;-63
2022/08/29 07:29:55;;;;;;;;;;;;;;;22.69;53.56;102085.38;7287335;19;153292;-63
2022/08/29 07:32:22;;;;;;;;;;;;;;;22.66;53.76;102088.78;7288015;19;152957;-62
2022/08/29 07:34:51;;;;;;;;;;;;;;;22.69;53.72;102091.00;7285086;19;152328;-64
2022/08/29 07:37:21;;;;;;;;;;;;;;;22.70;53.58;102092.72;7294988;19;153370;-63
2022/08/29 07:39:48;;;;;;;;;;;;;;;22.72;53.28;102088.47;7286400;19;152613;-63
2022/08/29 07:42:15;;;;;;;;;;;;;;;22.70;53.44;102092.72;7289218;19;152684;-63
2022/08/29 07:44:42;;;;;;;;;;;;;;;22.70;53.49;102095.53;7286002;19;152391;-62
2022/08/29 07:47:08;;;;;;;;;;;;;;;22.73;53.30;102092.97;7289288;19;152373;-63
2022/08/29 07:49:36;;;;;;;;;;;;;;;22.67;53.68;102096.91;7285453;19;152725;-62
2022/08/29 07:52:08;;;;;;;;;;;;;;;22.70;53.69;102093.56;7288194;19;154365;-63
2022/08/29 07:54:35;;;;;;;;;;;;;;;22.70;53.67;102107.66;7285179;19;152193;-62
2022/08/29 07:57:01;;;;;;;;;;;;;;;22.71;53.73;102100.91;7287230;19;153331;-63
2022/08/29 07:59:29;;;;;;;;;;;;;;;22.69;53.72;102102.28;7293228;19;154494;-63
2022/08/29 08:01:56;;;;;;;;;;;;;;;22.73;53.60;102092.97;7287620;19;153298;-63
2022/08/29 08:04:22;;;;;;;;;;;;;;;22.71;53.65;102097.22;7283886;19;154320;-63
2022/08/29 08:06:49;;;;;;;;;;;;;;;22.68;53.71;102092.97;7287861;19;152121;-64
2022/08/29 08:09:16;;;;;;;;;;;;;;;22.69;53.82;102096.63;7287125;19;153490;-64
2022/08/29 08:11:42;;;;;;;;;;;;;;;22.72;53.62;102096.06;7284466;19;154121;-63
2022/08/29 08:14:09;;;;;;;;;;;;;;;22.70;53.39;102099.19;7285644;19;153235;-63
2022/08/29 08:16:36;;;;;;;;;;;;;;;22.69;53.59;102093.81;7288184;19;153737;-62
2022/08/29 08:19:09;;;;;;;;;;;;;;;22.70;53.55;102095.53;7283462;19;154047;-62
2022/08/29 08:21:35;;;;;;;;;;;;;;;22.75;53.00;102101.97;7296007;19;153582;-63
2022/08/29 08:24:12;;;;;;;;;;;;;;;22.70;53.17;102099.19;7283898;19;153892;-62
2022/08/29 08:26:44;;;;;;;;;;;;;;;22.70;53.11;102092.72;7286172;19;153392;-63
2022/08/29 08:29:11;;;;;;;;;;;;;;;22.69;53.06;102097.47;7283587;19;153317;-63
2022/08/29 08:31:45;;;;;;;;;;;;;;;22.70;53.06;102098.34;7283764;19;156010;-63
2022/08/29 08:34:14;;;;;;;;;;;;;;;22.68;52.69;102095.78;7284896;19;152537;-63
2022/08/29 08:36:43;;;;;;;;;;;;;;;22.71;52.83;102100.03;7287027;19;152941;-63
2022/08/29 08:39:19;;;;;;;;;;;;;;;22.71;52.37;102098.06;7284727;19;154040;-62
2022/08/29 08:41:49;;;;;;;;;;;;;;;22.69;52.40;102103.13;7293382;19;153391;-62
2022/08/29 08:44:27;;;;;;;;;;;;;;;22.72;52.45;102113.81;7284576;19;153219;-62
2022/08/29 08:46:57;;;;;;;;;;;;;;;22.71;52.54;102102.88;7287163;19;151802;-63
2022/08/29 08:49:38;;;;;;;;;;;;;;;22.70;52.56;102107.66;7280727;19;152549;-63
2022/08/29 08:52:09;;;;;;;;;;;;;;;22.72;52.01;102102.56;7283266;19;153173;-63
2022/08/29 08:54:43;;;;;;;;;;;;;;;22.70;52.39;102104.84;7283146;19;152135;-63
2022/08/29 08:57:11;;;;;;;;;;;;;;;22.72;52.35;102098.88;7285461;19;153338;-62
2022/08/29 08:59:42;;;;;;;;;;;;;;;22.72;52.13;102094.09;7284912;19;153810;-63
2022/08/29 09:02:33;;;;;;;;;;;;;;;22.73;51.97;102095.78;7286350;19;152440;-63
2022/08/29 09:05:19;;;;;;;;;;;;;;;22.73;52.00;102103.38;7286218;19;153936;-63
2022/08/29 09:07:45;;;;;;;;;;;;;;;22.71;52.09;102091.59;7286541;19;152302;-63
2022/08/29 09:10:31;;;;;;;;;;;;;;;22.79;51.76;102096.59;7284199;19;153693;-63
2022/08/29 09:12:57;;;;;;;;;;;;;;;22.75;52.13;102101.97;7283751;19;153887;-63
2022/08/29 09:15:38;;;;;;;;;;;;;;;22.74;52.01;102105.94;7284437;19;152731;-62
2022/08/29 09:18:08;;;;;;;;;;;;;;;22.75;51.84;102101.13;7284030;19;153084;-62
2022/08/29 09:20:39;;;;;;;;;;;;;;;22.78;51.79;102095.75;7280819;19;155193;-63
2022/08/29 09:23:13;;;;;;;;;;;;;;;22.76;51.63;102095.19;7285777;19;152697;-63
2022/08/29 09:25:40;;;;;;;;;;;;;;;22.81;51.29;102083.88;7284569;19;153240;-64
2022/08/29 09:28:07;;;;;;;;;;;;;;;22.80;51.15;102089.81;7291019;19;153525;-62
2022/08/29 09:30:35;;;;;;;;;;;;;;;22.79;51.43;102085.31;7284359;19;152673;-63
2022/08/29 09:33:03;;;;;;;;;;;;;;;22.81;50.95;102088.66;7283953;19;154309;-63
2022/08/29 09:35:36;;;;;;;;;;;;;;;22.82;51.51;102087.53;7282001;19;152017;-63
2022/08/29 09:38:05;;;;;;;;;;;;;;;22.80;51.37;102093.47;7286115;19;153122;-63
2022/08/29 09:41:06;;;;;;;;;;;;;;;22.81;51.63;102095.13;7282126;19;153464;-62
2022/08/29 09:43:38;;;;;;;;;;;;;;;22.82;51.39;102094.00;7280733;19;152050;-63
2022/08/29 09:46:11;;;;;;;;;;;;;;;22.83;51.40;102089.22;7282928;19;152513;-63
2022/08/29 09:48:39;;;;;;;;;;;;;;;22.82;51.67;102091.19;7280583;19;154075;-63
2022/08/29 09:51:09;;;;;;;;;;;;;;;22.86;51.17;102091.44;7288171;19;152694;-63
2022/08/29 09:53:38;;;;;;;;;;;;;;;;;;7283237;19;153674;-62
2022/08/29 09:56:06;;;;;;;;;;;;;;;22.91;51.14;102094.19;7282925;19;159587;-63
2022/08/29 09:58:38;;;;;;;;;;;;;;;22.91;49.97;102080.09;7281826;19;153378;-63
2022/08/29 10:01:12;;;;;;;;;;;;;;;22.90;49.94;102082.09;7282722;19;153251;-63
2022/08/29 10:03:41;;;;;;;;;;;;;;;22.89;50.14;102105.78;7281153;19;153327;-63
2022/08/29 10:06:28;;;;;;;;;;;;;;;22.89;50.45;102090.84;7281879;19;153492;-62
2022/08/29 10:08:57;;;;;;;;;;;;;;;22.89;49.94;102082.41;7280283;19;156478;-63
2022/08/29 10:11:27;;;;;;;;;;;;;;;22.88;50.66;102083.53;7280251;19;153004;-64
2022/08/29 10:14:02;;;;;;;;;;;;;;;22.88;50.91;102092.00;7288882;19;152678;-63
2022/08/29 10:16:36;;;;;;;;;;;;;;;22.86;50.80;102085.78;7281301;19;152085;-63
2022/08/29 10:19:05;;;;;;;;;;;;;;;22.89;51.33;102082.41;7281968;19;153754;-63
2022/08/29 10:21:38;;;;;;;;;;;;;;;22.90;50.79;102086.88;7282179;19;154700;-63
2022/08/29 10:24:09;;;;;;;;;;;;;;;22.91;50.70;102083.78;7283130;19;151791;-62
2022/08/29 10:26:59;;;;;;;;;;;;;;;22.94;49.91;102088.81;7282607;19;153437;-62
2022/08/29 10:29:31;;;;;;;;;;;;;;;22.94;49.40;102088.00;7281407;19;152604;-63
2022/08/29 10:32:08;;;;;;;;;;;;;;;22.96;49.30;102092.19;7282047;19;153207;-62
2022/08/29 10:34:53;;;;;;;;;;;;;;;22.99;49.65;102083.13;7278149;19;153184;-62
2022/08/29 10:37:38;;;;;;;;;;;;;;;22.96;48.88;102080.06;7289863;19;151945;-62
2022/08/29 10:40:12;;;;;;;;;;;;;;;22.93;49.34;102075.88;7278841;19;154304;-63
2022/08/29 10:42:43;;;;;;;;;;;;;;;22.95;49.20;102079.22;7281587;19;154947;-63
2022/08/29 10:45:12;;;;;;;;;;;;;;;22.99;49.90;102076.63;7281866;19;152020;-63
2022/08/29 10:47:43;;;;;;;;;;;;;;;22.99;49.38;102073.81;7283829;19;153272;-63
2022/08/29 10:50:26;;;;;;;;;;;;;;;22.99;49.30;102073.81;7278632;19;154018;-63
2022/08/29 10:53:14;;;;;;;;;;;;;;;22.96;49.16;102069.63;7282856;19;152309;-62
2022/08/29 10:55:49;;;;;;;;;;;;;;;22.96;49.24;102068.78;7280000;19;154212;-63
2022/08/29 10:58:25;;;;;;;;;;;;;;;22.95;49.56;102059.50;7287110;19;153933;-63
2022/08/29 11:00:59;;;;;;;;;;;;;;;22.95;50.40;102062.31;7282508;19;152846;-62
2022/08/29 11:03:39;;;;;;;;;;;;;;;22.95;50.11;102058.66;7279626;19;153587;-63
2022/08/29 11:06:35;;;;;;;;;;;;;;;22.95;49.61;102056.66;7275578;19;152917;-63
2022/08/29 11:09:32;;;;;;;;;;;;;;;23.06;49.29;102060.22;7281339;19;152290;-63
2022/08/29 11:12:04;;;;;;;;;;;;;;;23.05;48.29;102061.38;7277738;19;154685;-63
2022/08/29 11:14:40;;;;;;;;;;;;;;;23.01;48.82;102052.66;7281231;19;152373;-63
2022/08/29 11:17:22;;;;;;;;;;;;;;;22.99;49.02;102057.75;7280825;19;153057;-63
2022/08/29 11:19:51;;;;;;;;;;;;;;;22.98;49.18;102055.25;7276971;19;153972;-63
2022/08/29 11:22:23;;;;;;;;;;;;;;;23.07;48.06;102059.09;7290485;19;152962;-63
2022/08/29 11:24:56;;;;;;;;;;;;;;;23.06;48.73;102054.59;7276957;19;153947;-62
2022/08/29 11:27:31;;;;;;;;;;;;;;;23.08;48.14;102057.13;7281064;19;154018;-64
2022/08/29 11:30:09;;;;;;;;;;;;;;;23.05;48.88;102061.38;7280521;19;154318;-63
2022/08/29 11:32:49;;;;;;;;;;;;;;;23.06;48.83;102051.78;7278637;19;154236;-63
2022/08/29 11:35:20;;;;;;;;;;;;;;;23.05;49.23;102042.47;7279774;19;153615;-63
2022/08/29 11:37:47;;;;;;;;;;;;;;;23.05;49.84;102044.44;7281542;19;152695;-63
2022/08/29 11:40:36;;;;;;;;;;;;;;;23.07;49.57;102039.38;7280646;19;155009;-63
2022/08/29 11:43:29;;;;;;;;;;;;;;;23.07;49.12;102036.53;7280380;19;152799;-62
2022/08/29 11:45:58;;;;;;;;;;;;;;;23.17;47.59;102030.75;7287226;19;152554;-64
2022/08/29 11:48:30;;;;;;;;;;;;;;;23.16;47.21;102034.75;7281422;19;152310;-62
2022/08/29 11:51:17;;;;;;;;;;;;;;;23.14;47.80;102034.19;7278091;19;153759;-62
2022/08/29 11:53:47;;;;;;;;;;;;;;;23.10;48.74;102024.66;7278458;19;155591;-62
2022/08/29 11:56:14;;;;;;;;;;;;;;;23.14;47.51;102031.38;7280791;19;152219;-63
2022/08/29 11:58:43;;;;;;;;;;;;;;;23.11;48.15;102031.13;7280178;19;152797;-64
2022/08/29 12:01:32;;;;;;;;;;;;;;;23.09;49.46;102031.44;7279781;19;154141;-63
2022/08/29 12:03:59;;;;;;;;;;;;;;;23.09;49.04;102025.78;7274904;19;153597;-62
2022/08/29 12:06:33;;;;;;;;;;;;;;;23.11;47.97;102017.03;7282361;19;153103;-63
2022/08/29 12:09:03;;;;;;;;;;;;;;;23.12;48.42;102015.91;7291644;19;152474;-63
2022/08/29 12:11:52;;;;;;;;;;;;;;;23.15;48.56;102012.47;7286731;19;154144;-63
2022/08/29 12:14:28;;;;;;;;;;;;;;;23.14;48.85;102017.28;7283956;19;153256;-62
2022/08/29 12:17:03;;;;;;;;;;;;;;;23.14;49.32;102013.63;7289126;19;152667;-63
2022/08/29 12:19:51;;;;;;;;;;;;;;;23.14;48.95;102016.44;7281446;19;153494;-63
2022/08/29 12:22:36;;;;;;;;;;;;;;;23.16;48.36;102028.25;7286991;19;152878;-63
2022/08/29 12:25:35;;;;;;;;;;;;;;;23.15;48.67;102027.41;7284203;19;152495;-63
2022/08/29 12:28:02;;;;;;;;;;;;;;;23.14;48.90;102027.72;7284416;19;154034;-63
2022/08/29 12:30:39;;;;;;;;;;;;;;;23.14;48.93;102031.38;7283816;19;154761;-63
2022/08/29 12:33:13;;;;;;;;;;;;;;;23.15;49.10;102018.97;7293085;19;153461;-63
2022/08/29 12:35:55;;;;;;;;;;;;;;;23.18;47.70;102020.31;7281667;19;154504;-63
2022/08/29 12:38:43;;;;;;;;;;;;;;;23.17;47.89;102027.13;7285602;19;153004;-63
2022/08/29 12:41:28;;;;;;;;;;;;;;;23.18;48.15;102023.16;7286638;19;153106;-63
2022/08/29 12:43:58;;;;;;;;;;;;;;;23.16;48.44;102017.84;7284486;19;153152;-63
2022/08/29 12:46:34;;;;;;;;;;;;;;;23.16;48.99;102017.00;7241885;19;153483;-63
2022/08/29 12:49:19;;;;;;;;;;;;;;;23.16;48.41;102019.81;7272322;19;153561;-64
2022/08/29 12:51:48;;;;;;;;;;;;;;;23.20;47.23;102024.53;7275790;19;153504;-62